This is the latest recevied weather packets stored in our database for station/object SA7BGG-5. If no packets are shown the sender has not sent any weather packets the latest 10 day(s).
| Time | Temp. | Humidity | Pressure | Rain* | Wind** | Luminosity | Snow |
|---|---|---|---|---|---|---|---|
| 1777584303 | 10.56° C | 70% | 1032 hPa | - | - | - | - |
| 1777584003 | 10.56° C | 70% | 1032 hPa | - | - | - | - |
| 1777583402 | 11.11° C | 69% | 1032 hPa | - | - | - | - |
| 1777581605 | 11.67° C | 66% | 1032 hPa | - | - | - | - |
| 1777580404 | 12.22° C | 64% | 1032 hPa | - | - | - | - |
| 1777580103 | 12.22° C | 63% | 1032 hPa | - | - | - | - |
| 1777579803 | 12.22° C | 63% | 1032 hPa | - | - | - | - |
| 1777578001 | 13.33° C | 59% | 1032 hPa | - | - | - | - |
| 1777577400 | 13.89° C | 59% | 1032 hPa | - | - | - | - |
| 1777576204 | 14.44° C | 55% | 1032 hPa | - | - | - | - |
| 1777575303 | 15.56° C | 52% | 1032 hPa | - | - | - | - |
| 1777573801 | 16.11° C | 49% | 1031 hPa | - | - | - | - |
| 1777573501 | 16.67° C | 50% | 1031 hPa | - | - | - | - |
| 1777572905 | 16.67° C | 50% | 1031 hPa | - | - | - | - |
| 1777571704 | 17.22° C | 48% | 1031 hPa | - | - | - | - |
| 1777569002 | 18.33° C | 44% | 1031 hPa | - | - | - | - |
| 1777568700 | 18.89° C | 43% | 1031 hPa | - | - | - | - |
| 1777568405 | 18.89° C | 43% | 1031 hPa | - | - | - | - |
| 1777565702 | 20° C | 38% | 1031 hPa | - | - | - | - |
| 1777564801 | 20.56° C | 37% | 1031 hPa | - | - | - | - |
| 1777563304 | 21.11° C | 35% | 1031 hPa | - | - | - | - |
| 1777562704 | 21.11° C | 35% | 1031 hPa | - | - | - | - |
| 1777561202 | 21.67° C | 35% | 1031 hPa | - | - | - | - |
| 1777560301 | 21.67° C | 33% | 1031 hPa | - | - | - | - |
| 1777559701 | 22.22° C | 34% | 1031 hPa | - | - | - | - |
* Rain since midnight (hover to see other rain measurements)
** Current wind speed in m/s (hover to see current wind gust speed)